Time;durP1;ratioP1;P1;durP2;ratioP2;P2;SDS_P1;SDS_P2;PMS_P1;PMS_P2;Temp;Humidity;BMP_temperature;BMP_pressure;BME280_temperature;BME280_humidity;BME280_pressure;Samples;Min_cycle;Max_cycle;Signal;HPM_P1;HPM_P2
2022/11/03 00:00:23;;;;;;;;;;;;;;;10.60;79.46;101391.22;5074503;28;19928;-93
2022/11/03 00:02:49;;;;;;;;;;;;;;;10.61;79.39;101390.34;5074363;28;19917;-93
2022/11/03 00:08:00;;;;;;;;;;;;;;;10.62;79.78;101378.25;5074177;28;19935;-92
2022/11/03 00:10:25;;;;;;;;;;;;;;;10.63;79.30;101382.56;5074189;28;19913;-91
2022/11/03 00:12:52;;;;;;;;;;;;;;;10.61;79.56;101371.31;5074156;28;19913;-91
2022/11/03 00:15:17;;;;;;;;;;;;;;;10.61;79.47;101371.31;5073947;28;19923;-91
2022/11/03 00:17:44;;;;;;;;;;;;;;;10.60;79.81;101378.22;5074178;28;19912;-91
2022/11/03 00:20:10;;;;;;;;;;;;;;;10.57;80.32;101362.69;5057542;28;19916;-92
2022/11/03 00:22:35;;;;;;;;;;;;;;;10.59;79.32;101367.88;5054249;28;20369;-90
2022/11/03 00:25:00;;;;;;;;;;;;;;;10.60;79.68;101370.44;5053989;28;19924;-92
2022/11/03 00:27:25;;;;;;;;;;;;;;;10.62;79.63;101367.84;5054155;28;19948;-92
2022/11/03 00:29:50;;;;;;;;;;;;;;;10.63;79.50;101359.19;5053586;28;20391;-92
2022/11/03 00:32:16;;;;;;;;;;;;;;;10.64;79.19;101359.19;5054340;28;19928;-91
2022/11/03 00:34:41;;;;;;;;;;;;;;;10.65;79.44;101349.63;5057981;28;19982;-91
2022/11/03 00:37:06;;;;;;;;;;;;;;;10.64;79.99;101350.50;5057882;28;20003;-93
2022/11/03 00:39:32;;;;;;;;;;;;;;;10.64;80.09;101347.91;5058008;28;20395;-91
2022/11/03 00:41:57;;;;;;;;;;;;;;;10.64;79.73;101346.19;5057673;28;19919;-92
2022/11/03 00:44:22;;;;;;;;;;;;;;;10.66;79.25;101331.47;5076228;28;20345;-92
2022/11/03 00:46:47;;;;;;;;;;;;;;;10.69;78.91;101330.59;5079020;28;19919;-92
2022/11/03 00:49:12;;;;;;;;;;;;;;;10.69;79.86;101328.00;5080745;28;20359;-92
2022/11/03 00:51:37;;;;;;;;;;;;;;;10.71;79.25;101322.78;5080167;28;20003;-93
2022/11/03 00:54:04;;;;;;;;;;;;;;;10.74;78.79;101313.25;5078866;28;20384;-93
2022/11/03 00:56:31;;;;;;;;;;;;;;;10.73;79.54;101316.72;5064675;28;19954;-91
2022/11/03 00:58:56;;;;;;;;;;;;;;;10.74;79.62;101314.97;5061244;28;19913;-92
2022/11/03 01:01:23;;;;;;;;;;;;;;;10.73;79.43;101314.13;5057326;28;19929;-92
2022/11/03 01:06:49;;;;;;;;;;;;;;;10.75;79.22;101301.97;5062207;28;20419;-92
2022/11/03 01:09:20;;;;;;;;;;;;;;;10.74;79.32;101289.88;5077205;28;19962;-92
2022/11/03 01:11:51;;;;;;;;;;;;;;;10.77;79.91;101296.78;5077390;28;20453;-91
2022/11/03 01:14:17;;;;;;;;;;;;;;;10.76;79.74;101285.50;5077022;28;19981;-92
2022/11/03 01:16:42;;;;;;;;;;;;;;;10.77;79.77;101291.59;5077187;28;20005;-92
2022/11/03 01:19:07;;;;;;;;;;;;;;;10.80;79.31;101286.38;5076871;28;19959;-93
2022/11/03 01:21:33;;;;;;;;;;;;;;;10.80;79.41;101287.22;5076944;28;20463;-92
2022/11/03 01:24:00;;;;;;;;;;;;;;;10.86;79.40;101285.47;5077232;28;19909;-93
2022/11/03 01:26:25;;;;;;;;;;;;;;;10.88;79.33;101273.28;5077087;28;19916;-93
2022/11/03 01:28:50;;;;;;;;;;;;;;;10.90;79.21;101274.16;5076734;28;20357;-92
2022/11/03 01:31:17;;;;;;;;;;;;;;;10.91;79.28;101271.56;5077033;28;19908;-91
2022/11/03 01:33:44;;;;;;;;;;;;;;;10.94;79.19;101265.47;5077193;28;19958;-92
2022/11/03 01:36:10;;;;;;;;;;;;;;;10.96;79.38;101266.31;5076799;28;20013;-93
2022/11/03 01:38:35;;;;;;;;;;;;;;;10.94;79.29;101268.06;5076684;28;20429;-91
2022/11/03 01:41:01;;;;;;;;;;;;;;;10.95;79.19;101259.41;5076766;28;19919;-93
2022/11/03 01:43:27;;;;;;;;;;;;;;;10.97;79.00;101253.28;5076735;28;20007;-93
2022/11/03 01:45:58;;;;;;;;;;;;;;;10.98;79.06;101264.53;5075298;28;20406;-92
2022/11/03 01:48:24;;;;;;;;;;;;;;;11.00;78.84;101249.81;5076395;28;19970;-93
2022/11/03 01:50:50;;;;;;;;;;;;;;;11.01;78.96;101248.09;5076324;28;19956;-92
2022/11/03 01:53:17;;;;;;;;;;;;;;;11.06;78.81;101246.28;5076265;28;20375;-91
2022/11/03 01:55:42;;;;;;;;;;;;;;;11.07;79.05;101237.59;5076423;28;19954;-93
2022/11/03 01:58:10;;;;;;;;;;;;;;;11.09;79.04;101238.47;5076389;28;19959;-92
2022/11/03 02:00:36;;;;;;;;;;;;;;;11.12;78.80;101234.09;5076007;28;19912;-92
2022/11/03 02:03:01;;;;;;;;;;;;;;;11.13;79.21;101237.56;5075713;28;19908;-91
2022/11/03 02:05:27;;;;;;;;;;;;;;;11.13;78.90;101228.00;5076494;28;19969;-91
2022/11/03 02:07:56;;;;;;;;;;;;;;;11.13;79.44;101227.16;5076298;28;19961;-91
2022/11/03 02:10:21;;;;;;;;;;;;;;;11.12;79.39;101228.03;5076607;28;20006;-92
2022/11/03 02:12:47;;;;;;;;;;;;;;;11.10;79.52;101220.25;5076301;28;20019;-91
2022/11/03 02:15:13;;;;;;;;;;;;;;;11.10;79.60;101220.25;5075474;28;20375;-91
2022/11/03 02:17:40;;;;;;;;;;;;;;;11.10;79.40;101219.41;5075791;28;19913;-93
2022/11/03 02:20:08;;;;;;;;;;;;;;;11.11;79.31;101210.72;5075550;28;19912;-91
2022/11/03 02:22:39;;;;;;;;;;;;;;;11.11;79.17;101214.19;5079091;28;19916;-91
2022/11/03 02:25:16;;;;;;;;;;;;;;;11.11;79.40;101205.53;5075364;28;19912;-94
2022/11/03 02:27:41;;;;;;;;;;;;;;;11.12;79.32;101200.31;5075574;28;19923;-92
2022/11/03 02:30:07;;;;;;;;;;;;;;;11.12;79.43;101199.47;5075071;28;19916;-90
2022/11/03 02:32:39;;;;;;;;;;;;;;;11.11;79.37;101196.00;5076559;28;19940;-91
2022/11/03 02:35:10;;;;;;;;;;;;;;;11.11;79.45;101196.00;5077501;28;19913;-94
2022/11/03 02:37:38;;;;;;;;;;;;;;;11.12;79.37;101184.72;5075985;28;19999;-92
2022/11/03 02:40:05;;;;;;;;;;;;;;;11.11;79.70;101177.81;5048007;22;19921;-92
2022/11/03 02:42:31;;;;;;;;;;;;;;;11.10;79.74;101183.88;5035776;28;19913;-92
2022/11/03 02:44:59;;;;;;;;;;;;;;;11.09;79.70;101176.97;5055471;28;19917;-92
2022/11/03 02:47:24;;;;;;;;;;;;;;;11.12;79.67;101165.69;5055671;28;19913;-93
2022/11/03 02:49:52;;;;;;;;;;;;;;;11.11;79.70;101166.56;5055226;28;19916;-91
2022/11/03 02:52:36;;;;;;;;;;;;;;;11.12;79.30;101163.09;5055531;28;19913;-92
2022/11/03 02:55:13;;;;;;;;;;;;;;;11.09;80.18;101158.78;5055424;28;19913;-91
2022/11/03 02:57:44;;;;;;;;;;;;;;;11.09;80.00;101152.75;5055339;28;20078;-92
2022/11/03 03:00:10;;;;;;;;;;;;;;;11.07;79.92;101154.50;5055477;28;19923;-92
2022/11/03 03:02:43;;;;;;;;;;;;;;;11.06;79.88;101143.25;5054634;28;19909;-91
2022/11/03 03:05:10;;;;;;;;;;;;;;;11.06;80.03;101147.56;5054479;28;20388;-93
2022/11/03 03:07:37;;;;;;;;;;;;;;;11.04;80.01;101147.59;5054701;28;20345;-93
2022/11/03 03:10:05;;;;;;;;;;;;;;;11.02;80.28;101131.19;5055125;28;19912;-91
2022/11/03 03:12:33;;;;;;;;;;;;;;;11.02;80.61;101132.94;5054834;28;19909;-92
2022/11/03 03:15:00;;;;;;;;;;;;;;;11.02;80.49;101118.19;5054434;28;20427;-91
2022/11/03 03:17:25;;;;;;;;;;;;;;;11.03;80.23;101121.66;5055094;28;19913;-92
2022/11/03 03:19:59;;;;;;;;;;;;;;;11.04;80.20;101126.81;5054846;28;19913;-93
2022/11/03 03:22:24;;;;;;;;;;;;;;;11.04;80.57;101123.34;5054974;28;19913;-92
2022/11/03 03:24:54;;;;;;;;;;;;;;;11.05;80.24;101118.16;5054502;28;19999;-91
2022/11/03 03:27:22;;;;;;;;;;;;;;;11.07;80.95;101120.72;5055320;28;20001;-92
2022/11/03 03:29:51;;;;;;;;;;;;;;;11.10;80.67;101110.31;5055112;28;20012;-91
2022/11/03 03:32:19;;;;;;;;;;;;;;;11.10;81.23;101113.75;5054458;28;19913;-93
2022/11/03 03:34:45;;;;;;;;;;;;;;;11.09;80.94;101106.84;5058359;28;19936;-92
2022/11/03 03:37:12;;;;;;;;;;;;;;;11.09;80.99;101111.19;5069871;28;19913;-93
2022/11/03 03:39:40;;;;;;;;;;;;;;;11.10;80.74;101102.50;5063997;28;19916;-93
2022/11/03 03:42:07;;;;;;;;;;;;;;;11.12;80.63;101100.75;5054059;28;19977;-94
2022/11/03 03:44:33;;;;;;;;;;;;;;;11.07;81.34;101095.63;5056012;28;19920;-92
2022/11/03 03:46:59;;;;;;;;;;;;;;;11.07;81.57;101090.44;5055689;28;19917;-92
2022/11/03 03:49:25;;;;;;;;;;;;;;;11.04;81.37;101093.06;5059377;28;20336;-92
2022/11/03 03:51:50;;;;;;;;;;;;;;;11.07;81.11;101094.75;5061132;28;19912;-93
2022/11/03 03:54:15;;;;;;;;;;;;;;;11.08;81.39;101086.97;5062447;28;19912;-92
2022/11/03 03:56:58;;;;;;;;;;;;;;;11.10;81.11;101086.94;5053517;28;19913;-92
2022/11/03 03:59:23;;;;;;;;;;;;;;;11.10;81.69;101076.53;5054129;28;20479;-91
2022/11/03 04:01:48;;;;;;;;;;;;;;;11.09;81.93;101065.28;5054272;28;19999;-91
2022/11/03 04:04:13;;;;;;;;;;;;;;;11.09;81.35;101073.06;5054292;28;20277;-92
2022/11/03 04:06:39;;;;;;;;;;;;;;;11.11;81.52;101075.66;5053957;28;19916;-92
2022/11/03 04:09:04;;;;;;;;;;;;;;;11.11;81.63;101070.47;5057208;28;19913;-93
2022/11/03 04:22:28;;;;;;;;;;;;;;;11.15;82.18;101058.28;5038862;28;19920;-93
2022/11/03 04:24:53;;;;;;;;;;;;;;;11.15;81.86;101060.88;5038118;28;19913;-92
2022/11/03 04:27:24;;;;;;;;;;;;;;;11.15;82.15;101051.34;5037847;28;19920;-93
2022/11/03 04:29:50;;;;;;;;;;;;;;;11.13;82.61;101046.19;5037779;28;19920;-92
2022/11/03 04:32:16;;;;;;;;;;;;;;;11.15;82.73;101047.91;5038312;28;19913;-92
2022/11/03 04:34:41;;;;;;;;;;;;;;;11.12;82.52;101038.41;5038178;28;19967;-92
2022/11/03 04:37:13;;;;;;;;;;;;;;;11.13;83.27;101038.38;5038035;28;20365;-92
2022/11/03 04:39:39;;;;;;;;;;;;;;;11.12;82.53;101036.66;5044099;28;19951;-92
2022/11/03 04:42:30;;;;;;;;;;;;;;;11.11;83.15;101029.75;5037938;28;19913;-92
2022/11/03 04:44:57;;;;;;;;;;;;;;;11.11;83.55;101032.34;5034624;28;20254;-92
2022/11/03 04:47:24;;;;;;;;;;;;;;;11.11;83.24;101029.75;5038098;28;19966;-92
2022/11/03 04:49:49;;;;;;;;;;;;;;;11.12;83.12;101035.81;5037928;28;19913;-92
2022/11/03 04:52:16;;;;;;;;;;;;;;;11.12;83.33;101030.63;5037774;28;20354;-92
2022/11/03 04:54:42;;;;;;;;;;;;;;;11.11;83.36;101015.91;5037502;28;20361;-92
2022/11/03 04:57:09;;;;;;;;;;;;;;;11.12;83.73;101026.28;5037684;28;19920;-92
2022/11/03 04:59:35;;;;;;;;;;;;;;;11.13;83.89;101016.75;5038073;28;20330;-93
2022/11/03 05:02:00;;;;;;;;;;;;;;;11.13;83.94;101009.81;5037397;28;19920;-92
2022/11/03 05:04:25;;;;;;;;;;;;;;;11.17;83.75;101008.03;5037662;28;19967;-91
2022/11/03 05:06:52;;;;;;;;;;;;;;;11.17;83.74;100995.03;5037331;28;19913;-93
2022/11/03 05:09:19;;;;;;;;;;;;;;;11.20;83.62;100996.75;5037389;28;20340;-92
2022/11/03 05:11:45;;;;;;;;;;;;;;;11.20;83.27;101000.19;5037540;28;20277;-92
2022/11/03 05:14:13;;;;;;;;;;;;;;;11.17;83.81;100989.84;5037251;28;19913;-91
2022/11/03 05:16:38;;;;;;;;;;;;;;;11.19;83.91;100988.09;5037117;28;19923;-91
2022/11/03 05:19:07;;;;;;;;;;;;;;;11.21;84.14;100988.03;5035979;28;19942;-91
2022/11/03 05:21:32;;;;;;;;;;;;;;;11.21;84.72;100981.13;5036908;28;19952;-92
2022/11/03 05:24:01;;;;;;;;;;;;;;;11.20;83.83;100976.81;5037912;28;19917;-91
2022/11/03 05:26:29;;;;;;;;;;;;;;;11.21;84.18;100983.72;5038188;28;19959;-91
2022/11/03 05:28:58;;;;;;;;;;;;;;;11.21;84.75;100975.94;5036864;28;19920;-91
2022/11/03 05:31:28;;;;;;;;;;;;;;;11.22;84.24;100964.66;5036921;28;19913;-92
2022/11/03 05:33:55;;;;;;;;;;;;;;;11.21;84.31;100956.88;5036894;28;19936;-91
2022/11/03 05:36:22;;;;;;;;;;;;;;;11.22;84.00;100956.88;5037075;28;19913;-91
2022/11/03 05:38:47;;;;;;;;;;;;;;;11.23;84.15;100958.59;5036602;28;20380;-90
2022/11/03 05:41:23;;;;;;;;;;;;;;;11.23;85.13;100953.38;5036839;28;20028;-90
2022/11/03 05:43:52;;;;;;;;;;;;;;;11.22;84.90;100954.28;5036749;28;19913;-92
2022/11/03 05:46:18;;;;;;;;;;;;;;;11.23;85.03;100953.38;5036610;28;19917;-93
2022/11/03 05:48:43;;;;;;;;;;;;;;;11.24;84.64;100949.03;5036913;28;19909;-93
2022/11/03 05:51:15;;;;;;;;;;;;;;;11.35;84.32;100928.94;5036742;28;19946;-92
2022/11/03 05:53:44;;;;;;;;;;;;;;;11.28;85.28;100945.50;5036359;28;19913;-93
2022/11/03 05:56:14;;;;;;;;;;;;;;;11.27;85.70;100942.03;5036285;28;19920;-92
2022/11/03 05:58:40;;;;;;;;;;;;;;;11.27;85.29;100936.84;5036745;28;19917;-92
2022/11/03 06:01:27;;;;;;;;;;;;;;;11.28;85.61;100932.53;5016449;28;19921;-93
2022/11/03 06:03:53;;;;;;;;;;;;;;;11.28;85.26;100928.16;5016044;28;19913;-90
2022/11/03 06:06:37;;;;;;;;;;;;;;;11.27;85.85;100929.06;5016294;28;20334;-89
2022/11/03 06:09:08;;;;;;;;;;;;;;;11.29;85.39;100923.84;5018762;28;20358;-90
2022/11/03 06:11:35;;;;;;;;;;;;;;;11.30;85.70;100916.91;5036217;28;19959;-91
2022/11/03 06:14:00;;;;;;;;;;;;;;;11.30;85.48;100911.69;5036019;28;20277;-91
2022/11/03 06:16:36;;;;;;;;;;;;;;;11.31;85.18;100921.22;5036320;28;19913;-90
2022/11/03 06:19:11;;;;;;;;;;;;;;;11.28;86.12;100912.59;5035741;28;19913;-92
2022/11/03 06:21:36;;;;;;;;;;;;;;;11.28;85.15;100907.38;5045060;28;20003;-91
2022/11/03 06:24:02;;;;;;;;;;;;;;;11.28;85.56;100912.59;5058405;28;19959;-89
2022/11/03 06:26:27;;;;;;;;;;;;;;;11.26;85.58;100898.75;5056463;28;19916;-90
2022/11/03 06:28:53;;;;;;;;;;;;;;;11.25;85.68;100910.06;5056267;28;19920;-90
2022/11/03 06:31:20;;;;;;;;;;;;;;;11.26;85.73;100898.75;5048431;28;19917;-91
2022/11/03 06:33:45;;;;;;;;;;;;;;;11.25;86.00;100898.78;5042492;28;19917;-91
2022/11/03 06:36:21;;;;;;;;;;;;;;;11.25;86.40;100891.00;5037330;28;19913;-90
2022/11/03 06:38:49;;;;;;;;;;;;;;;11.27;86.18;100897.88;5035710;28;19917;-90
2022/11/03 06:41:20;;;;;;;;;;;;;;;11.26;86.12;100896.16;5035704;28;19913;-91
2022/11/03 06:43:46;;;;;;;;;;;;;;;11.27;85.73;100894.44;5035618;28;19921;-89
2022/11/03 06:46:13;;;;;;;;;;;;;;;11.28;86.36;100890.94;5045215;28;20080;-87
2022/11/03 06:48:38;;;;;;;;;;;;;;;11.30;85.36;100898.72;5055619;28;19923;-91
2022/11/03 06:51:13;;;;;;;;;;;;;;;11.36;85.40;100888.22;5054920;28;19913;-91
2022/11/03 06:53:38;;;;;;;;;;;;;;;11.33;86.04;100883.06;5099609;22;19921;-87
2022/11/03 06:56:08;;;;;;;;;;;;;;;11.32;86.80;100877.00;5033491;28;19919;-86
2022/11/03 06:58:35;;;;;;;;;;;;;;;11.37;86.03;100887.34;5034178;28;19924;-86
2022/11/03 07:01:01;;;;;;;;;;;;;;;11.36;85.85;100883.03;5034198;28;19913;-86
2022/11/03 07:03:30;;;;;;;;;;;;;;;11.38;85.79;100883.84;5015724;28;19913;-86
2022/11/03 07:05:56;;;;;;;;;;;;;;;11.38;86.61;100882.09;5037764;28;19993;-86
2022/11/03 07:08:22;;;;;;;;;;;;;;;11.40;85.87;100875.16;5054004;28;19912;-86
2022/11/03 07:10:48;;;;;;;;;;;;;;;11.42;85.75;100873.38;5037400;28;19924;-86
2022/11/03 07:13:18;;;;;;;;;;;;;;;11.49;85.33;100874.09;5033632;28;19920;-86
2022/11/03 07:15:44;;;;;;;;;;;;;;;11.47;85.50;100870.69;5033311;28;19921;-86
2022/11/03 07:18:21;;;;;;;;;;;;;;;11.49;85.58;100865.47;5033973;28;19916;-87
2022/11/03 07:20:46;;;;;;;;;;;;;;;11.49;85.51;100862.88;5033852;28;19913;-86
2022/11/03 07:23:14;;;;;;;;;;;;;;;11.51;85.67;100861.09;5050322;28;19916;-90
2022/11/03 07:25:39;;;;;;;;;;;;;;;11.52;85.44;100862.81;5054244;28;19924;-88
2022/11/03 07:28:05;;;;;;;;;;;;;;;11.56;84.80;100864.44;5054709;28;19913;-94
2022/11/03 07:30:33;;;;;;;;;;;;;;;11.57;85.00;100861.84;5054094;28;20391;-91
2022/11/03 07:33:17;;;;;;;;;;;;;;;11.61;85.02;100856.56;5054740;28;19940;-92
2022/11/03 07:35:43;;;;;;;;;;;;;;;11.62;85.04;100847.88;5036080;28;19968;-91
2022/11/03 07:38:18;;;;;;;;;;;;;;;11.63;84.72;100853.06;5034403;28;19913;-91
2022/11/03 07:40:43;;;;;;;;;;;;;;;11.63;84.69;100842.66;5034972;28;19913;-93
2022/11/03 07:43:18;;;;;;;;;;;;;;;11.67;84.32;100841.69;5033789;28;20301;-91
2022/11/03 07:45:48;;;;;;;;;;;;;;;11.67;84.78;100840.84;5031247;28;19921;-91
2022/11/03 07:48:17;;;;;;;;;;;;;;;11.68;84.72;100847.78;5034349;28;19909;-92
2022/11/03 07:50:42;;;;;;;;;;;;;;;11.71;84.20;100837.28;5034183;28;19913;-93
2022/11/03 07:53:30;;;;;;;;;;;;;;;11.73;84.38;100857.19;5033937;28;19924;-93
2022/11/03 07:55:56;;;;;;;;;;;;;;;11.76;83.97;100851.06;5025860;28;19975;-90
2022/11/03 07:58:33;;;;;;;;;;;;;;;11.80;83.61;100846.66;5033659;28;19920;-90
2022/11/03 08:01:00;;;;;;;;;;;;;;;11.85;83.51;100839.63;5033684;28;19913;-90
2022/11/03 08:03:35;;;;;;;;;;;;;;;11.84;83.67;100849.16;5034279;28;19988;-92
2022/11/03 08:06:00;;;;;;;;;;;;;;;11.86;83.41;100851.75;5033390;28;19913;-92
2022/11/03 08:08:25;;;;;;;;;;;;;;;11.88;83.37;100840.41;5037548;28;19965;-91
2022/11/03 08:10:50;;;;;;;;;;;;;;;11.92;83.33;100837.75;5053607;28;20270;-91
2022/11/03 08:13:15;;;;;;;;;;;;;;;11.93;83.36;100829.06;5060586;22;19921;-91
2022/11/03 08:15:41;;;;;;;;;;;;;;;11.95;83.06;100827.28;5053434;28;19913;-92
2022/11/03 08:18:06;;;;;;;;;;;;;;;11.97;82.87;100823.78;5054050;28;19916;-91
2022/11/03 08:20:31;;;;;;;;;;;;;;;12.00;82.53;100823.72;5054637;28;19920;-91
2022/11/03 08:22:56;;;;;;;;;;;;;;;12.05;81.99;100811.47;5053388;28;20335;-91
2022/11/03 08:25:21;;;;;;;;;;;;;;;12.07;82.38;100795.00;5053664;28;19951;-91
2022/11/03 08:27:46;;;;;;;;;;;;;;;12.12;81.88;100795.72;5055535;28;19913;-91
2022/11/03 08:30:12;;;;;;;;;;;;;;;12.12;81.94;100788.78;5054234;28;19974;-91
2022/11/03 08:32:37;;;;;;;;;;;;;;;12.17;82.21;100783.47;5055763;28;19913;-91
2022/11/03 08:35:02;;;;;;;;;;;;;;;12.19;81.85;100779.09;5072090;28;19916;-91
2022/11/03 08:37:28;;;;;;;;;;;;;;;12.20;81.94;100773.00;5074210;28;19919;-91
2022/11/03 08:39:53;;;;;;;;;;;;;;;12.22;82.01;100770.38;5073569;28;20323;-91
2022/11/03 08:42:18;;;;;;;;;;;;;;;12.24;81.89;100759.03;5073434;28;19947;-91
2022/11/03 08:44:43;;;;;;;;;;;;;;;12.26;81.62;100743.38;5070123;28;19936;-91
2022/11/03 08:47:08;;;;;;;;;;;;;;;12.31;81.86;100739.78;5053479;28;19927;-91
2022/11/03 08:49:33;;;;;;;;;;;;;;;12.34;81.70;100724.06;5052806;28;19968;-91
2022/11/03 08:51:59;;;;;;;;;;;;;;;12.38;81.63;100722.28;5053732;28;19913;-91
2022/11/03 08:54:24;;;;;;;;;;;;;;;12.42;80.79;100721.28;5054887;28;19916;-91
2022/11/03 08:56:49;;;;;;;;;;;;;;;12.45;80.79;100718.63;5058416;28;19924;-92
2022/11/03 08:59:16;;;;;;;;;;;;;;;12.48;80.51;100710.75;5057067;28;19932;-91
2022/11/03 09:01:43;;;;;;;;;;;;;;;12.56;80.71;100712.28;5057072;28;19920;-92
2022/11/03 09:04:08;;;;;;;;;;;;;;;12.62;80.71;100712.09;5057173;28;19916;-92
2022/11/03 09:06:33;;;;;;;;;;;;;;;12.67;80.54;100702.44;5057230;28;19995;-92
2022/11/03 09:08:59;;;;;;;;;;;;;;;12.74;80.10;100679.72;5057773;28;19913;-91
2022/11/03 09:11:24;;;;;;;;;;;;;;;12.79;80.11;100680.41;5060089;28;19923;-92
2022/11/03 09:13:49;;;;;;;;;;;;;;;12.86;80.16;100678.50;5062478;28;19921;-91
2022/11/03 09:16:15;;;;;;;;;;;;;;;12.92;79.61;100667.94;5059777;28;19924;-91
2022/11/03 09:18:40;;;;;;;;;;;;;;;12.97;79.44;100661.69;5057029;28;20368;-92
2022/11/03 09:21:06;;;;;;;;;;;;;;;13.02;79.21;100653.75;5060190;28;19916;-91
2022/11/03 09:23:31;;;;;;;;;;;;;;;13.08;77.37;100635.31;5076266;28;20358;-90
2022/11/03 09:25:56;;;;;;;;;;;;;;;13.09;79.07;100634.41;5078148;28;19912;-91
2022/11/03 09:28:22;;;;;;;;;;;;;;;13.14;77.92;100621.25;5076550;28;20360;-94
2022/11/03 09:30:47;;;;;;;;;;;;;;;13.18;77.99;100620.28;5076596;28;19909;-92
2022/11/03 09:33:12;;;;;;;;;;;;;;;13.20;77.41;100610.66;5069256;28;19993;-91
2022/11/03 09:35:38;;;;;;;;;;;;;;;13.20;77.94;100605.47;5056883;28;20400;-92
2022/11/03 09:38:03;;;;;;;;;;;;;;;13.23;77.68;100594.91;5056412;28;20394;-91
2022/11/03 09:40:28;;;;;;;;;;;;;;;13.22;77.35;100592.38;5056863;28;20254;-91
2022/11/03 09:42:55;;;;;;;;;;;;;;;13.23;77.81;100589.72;5059739;28;19916;-92
2022/11/03 09:45:20;;;;;;;;;;;;;;;13.22;77.10;100593.25;5056774;28;19966;-88
2022/11/03 09:47:46;;;;;;;;;;;;;;;13.24;77.55;100575.78;5065633;28;19913;-92
2022/11/03 09:50:18;;;;;;;;;;;;;;;13.23;77.10;100588.88;5076127;28;19908;-91
2022/11/03 09:52:54;;;;;;;;;;;;;;;13.24;77.96;100572.34;5071371;28;19931;-93
2022/11/03 09:55:22;;;;;;;;;;;;;;;13.23;77.93;100568.03;5043504;28;19955;-92
2022/11/03 09:57:48;;;;;;;;;;;;;;;13.22;77.71;100568.91;5057174;28;19912;-92
2022/11/03 10:00:17;;;;;;;;;;;;;;;13.21;77.81;100570.69;5060266;28;20000;-93
2022/11/03 10:02:42;;;;;;;;;;;;;;;13.18;77.39;100564.69;5056408;28;19913;-95
2022/11/03 10:05:11;;;;;;;;;;;;;;;13.19;77.76;100549.03;5055360;28;19913;-92
2022/11/03 10:07:36;;;;;;;;;;;;;;;13.17;77.64;100553.44;5056290;28;20007;-93
2022/11/03 10:10:03;;;;;;;;;;;;;;;13.17;77.25;100552.59;5056309;28;19959;-92
2022/11/03 10:12:31;;;;;;;;;;;;;;;13.18;77.22;100542.09;5055613;28;19912;-93
2022/11/03 10:14:56;;;;;;;;;;;;;;;13.16;76.92;100548.28;5056019;28;19920;-91
2022/11/03 10:17:25;;;;;;;;;;;;;;;13.16;77.38;100536.09;5055629;28;19912;-92
2022/11/03 10:19:52;;;;;;;;;;;;;;;13.15;76.94;100534.38;5071375;28;19920;-92
2022/11/03 10:22:20;;;;;;;;;;;;;;;13.11;76.26;100533.63;5075899;28;19935;-92
2022/11/03 10:24:46;;;;;;;;;;;;;;;13.08;76.75;100523.28;5075908;28;19945;-95
2022/11/03 10:27:21;;;;;;;;;;;;;;;13.09;76.96;100526.75;5076003;28;19913;-91
2022/11/03 10:30:02;;;;;;;;;;;;;;;13.08;77.13;100512.03;5075566;28;20010;-91
2022/11/03 10:32:28;;;;;;;;;;;;;;;13.12;77.32;100513.63;5075822;28;20435;-93
2022/11/03 10:34:54;;;;;;;;;;;;;;;13.12;76.52;100506.69;5063335;28;19931;-89
2022/11/03 10:37:23;;;;;;;;;;;;;;;13.13;77.14;100500.56;5055254;28;19917;-93
2022/11/03 10:39:49;;;;;;;;;;;;;;;13.15;76.82;100510.09;5055816;28;20269;-92
2022/11/03 10:42:19;;;;;;;;;;;;;;;13.18;76.89;100497.81;5055560;28;19980;-91
2022/11/03 10:44:44;;;;;;;;;;;;;;;13.23;76.85;100488.06;5055894;28;19917;-87
2022/11/03 10:47:21;;;;;;;;;;;;;;;13.27;76.74;100488.84;5070925;28;19970;-91
2022/11/03 10:49:46;;;;;;;;;;;;;;;13.36;76.38;100492.91;5075747;28;19913;-91
2022/11/03 10:52:21;;;;;;;;;;;;;;;13.42;76.38;100488.38;5075628;28;19919;-91
2022/11/03 10:54:48;;;;;;;;;;;;;;;13.49;76.05;100485.56;5075414;28;19912;-91
2022/11/03 10:57:13;;;;;;;;;;;;;;;13.56;76.33;100487.94;5075304;28;19935;-91
2022/11/03 10:59:39;;;;;;;;;;;;;;;13.63;75.08;100478.13;5075569;28;19920;-90
2022/11/03 11:02:14;;;;;;;;;;;;;;;13.67;75.73;100471.06;5075326;28;20008;-92
2022/11/03 11:04:40;;;;;;;;;;;;;;;13.72;75.62;100474.34;5075201;28;19979;-92
2022/11/03 11:07:13;;;;;;;;;;;;;;;13.78;74.59;100465.47;5080683;28;19920;-90
2022/11/03 11:09:39;;;;;;;;;;;;;;;13.80;74.54;100463.66;5074632;28;19916;-94
2022/11/03 11:12:23;;;;;;;;;;;;;;;13.85;74.49;100461.72;5058158;28;19976;-94
2022/11/03 11:14:53;;;;;;;;;;;;;;;13.94;73.75;100461.44;5060117;28;19916;-93
2022/11/03 11:17:36;;;;;;;;;;;;;;;13.95;72.33;100460.53;5055979;28;19913;-95
2022/11/03 11:20:17;;;;;;;;;;;;;;;13.94;72.16;100448.38;5055485;28;19913;-93
2022/11/03 11:22:42;;;;;;;;;;;;;;;13.97;72.96;100443.03;5055578;28;19913;-94
2022/11/03 11:25:07;;;;;;;;;;;;;;;13.99;73.53;100436.00;5065539;28;19912;-94
2022/11/03 11:27:35;;;;;;;;;;;;;;;14.02;73.77;100438.53;5069133;28;19916;-85
2022/11/03 11:30:03;;;;;;;;;;;;;;;14.08;73.18;100429.63;5057160;28;19916;-91
2022/11/03 11:32:34;;;;;;;;;;;;;;;14.08;73.70;100429.63;5057943;28;20349;-94
2022/11/03 11:35:06;;;;;;;;;;;;;;;14.11;73.45;100415.59;5054578;28;19916;-93
2022/11/03 11:37:43;;;;;;;;;;;;;;;14.14;73.19;100405.91;5060911;28;19913;-93
2022/11/03 11:40:17;;;;;;;;;;;;;;;14.18;72.24;100402.28;5075355;28;19919;-93
2022/11/03 11:43:01;;;;;;;;;;;;;;;14.21;72.94;100391.72;5014058;28;19921;-94
2022/11/03 11:45:45;;;;;;;;;;;;;;;14.24;71.85;100382.09;5016434;28;19921;-93
2022/11/03 11:48:15;;;;;;;;;;;;;;;14.24;70.96;100375.09;5016763;28;19924;-92
2022/11/03 11:50:40;;;;;;;;;;;;;;;14.24;71.40;100371.66;5016112;28;20012;-93
2022/11/03 11:53:05;;;;;;;;;;;;;;;14.26;71.49;100365.44;5017510;28;19991;-95
2022/11/03 11:55:42;;;;;;;;;;;;;;;14.29;72.64;100357.50;5022451;28;19919;-94
2022/11/03 11:58:22;;;;;;;;;;;;;;;14.28;70.99;100332.31;5030908;28;19917;-94
2022/11/03 12:00:51;;;;;;;;;;;;;;;14.31;70.76;100311.28;5025479;28;19953;-95
2022/11/03 12:03:21;;;;;;;;;;;;;;;14.28;70.56;100308.81;5034432;28;19913;-94
2022/11/03 12:05:49;;;;;;;;;;;;;;;14.31;71.27;100303.47;5015348;28;20354;-93
2022/11/03 12:08:18;;;;;;;;;;;;;;;14.35;71.50;100307.66;5029811;28;19968;-94
2022/11/03 12:10:54;;;;;;;;;;;;;;;14.36;69.80;100304.16;5017669;28;20004;-94
2022/11/03 12:13:38;;;;;;;;;;;;;;;14.39;71.10;100302.31;5015845;28;19967;-94
2022/11/03 12:16:03;;;;;;;;;;;;;;;14.42;71.93;100303.06;5014812;28;19920;-92
2022/11/03 12:18:28;;;;;;;;;;;;;;;14.47;70.48;100295.88;5014870;28;19910;-92
2022/11/03 12:20:53;;;;;;;;;;;;;;;14.52;71.05;100293.94;5015191;28;19917;-93
2022/11/03 12:23:35;;;;;;;;;;;;;;;14.56;71.38;100293.81;5015850;28;19914;-95
2022/11/03 12:26:00;;;;;;;;;;;;;;;14.61;70.97;100287.50;5014830;28;20370;-94
2022/11/03 12:28:29;;;;;;;;;;;;;;;14.65;71.07;100285.59;5015014;28;19925;-93
2022/11/03 12:30:54;;;;;;;;;;;;;;;14.69;69.98;100287.22;5018525;28;19995;-92
2022/11/03 12:33:19;;;;;;;;;;;;;;;14.74;68.33;100260.91;5018431;28;19988;-92
2022/11/03 12:35:45;;;;;;;;;;;;;;;14.80;69.49;100269.34;5018907;28;19924;-92
2022/11/03 12:38:10;;;;;;;;;;;;;;;14.86;69.00;100246.47;5018259;28;19917;-93
2022/11/03 12:40:35;;;;;;;;;;;;;;;14.92;68.99;100252.28;5018655;28;19931;-92
2022/11/03 12:43:00;;;;;;;;;;;;;;;14.98;69.33;100246.75;5018269;28;20004;-92
2022/11/03 12:45:25;;;;;;;;;;;;;;;15.04;69.99;100236.97;5018182;28;19909;-92
2022/11/03 12:47:50;;;;;;;;;;;;;;;15.07;69.40;100237.69;5018052;28;20351;-91
2022/11/03 12:50:16;;;;;;;;;;;;;;;15.11;69.64;100231.41;5018555;28;19920;-94
2022/11/03 12:52:41;;;;;;;;;;;;;;;15.13;69.05;100220.88;5018036;28;19916;-92
2022/11/03 12:55:06;;;;;;;;;;;;;;;15.16;68.59;100223.38;5018125;28;20269;-92